Time;durP1;ratioP1;P1;durP2;ratioP2;P2;SDS_P1;SDS_P2;PMS_P1;PMS_P2;Temp;Humidity;BMP_temperature;BMP_pressure;BME280_temperature;BME280_humidity;BME280_pressure;Samples;Min_cycle;Max_cycle;Signal;HPM_P1;HPM_P2
2023/10/10 00:01:02;;;;;;;11.13;9.70;;;13.90;99.90;;;;;;5071242;28;20496;-78
2023/10/10 00:03:31;;;;;;;9.93;8.90;;;13.90;99.90;;;;;;5072745;28;20502;-77
2023/10/10 00:06:05;;;;;;;10.10;8.10;;;13.90;99.90;;;;;;5073265;28;20513;-78
2023/10/10 00:08:40;;;;;;;10.93;9.87;;;13.90;99.90;;;;;;5074274;28;20466;-88
2023/10/10 00:11:09;;;;;;;9.17;8.40;;;13.90;99.90;;;;;;5074096;28;20504;-89
2023/10/10 00:13:42;;;;;;;8.90;8.00;;;13.90;99.90;;;;;;5073787;28;20782;-88
2023/10/10 00:16:10;;;;;;;9.20;8.30;;;13.90;99.90;;;;;;5063842;28;20491;-77
2023/10/10 00:18:43;;;;;;;8.60;7.90;;;13.90;99.90;;;;;;5039345;28;20470;-88
2023/10/10 00:21:23;;;;;;;9.83;8.93;;;13.80;99.90;;;;;;5041388;28;20494;-77
2023/10/10 00:23:53;;;;;;;9.30;8.40;;;13.80;99.90;;;;;;5032524;28;20563;-77
2023/10/10 00:26:21;;;;;;;8.55;7.63;;;13.80;99.90;;;;;;5037564;28;20516;-89
2023/10/10 00:28:54;;;;;;;11.23;9.37;;;13.80;99.90;;;;;;5046859;28;20697;-89
2023/10/10 00:31:22;;;;;;;8.73;7.93;;;13.80;99.90;;;;;;5033877;28;20811;-89
2023/10/10 00:33:51;;;;;;;8.90;8.13;;;13.80;99.90;;;;;;5032721;28;20498;-77
2023/10/10 00:36:22;;;;;;;9.35;8.65;;;13.80;99.90;;;;;;5031899;28;20472;-78
2023/10/10 00:38:50;;;;;;;9.10;8.07;;;13.80;99.90;;;;;;5032334;28;20217;-78
2023/10/10 00:41:17;;;;;;;8.50;7.70;;;13.90;99.90;;;;;;5031656;28;20456;-77
2023/10/10 00:43:44;;;;;;;10.03;9.03;;;13.90;99.90;;;;;;5032518;28;20814;-77
2023/10/10 00:46:11;;;;;;;8.30;7.53;;;13.90;99.90;;;;;;5033873;28;20472;-89
2023/10/10 00:48:39;;;;;;;9.00;8.20;;;13.90;99.90;;;;;;5034312;28;20468;-78
2023/10/10 00:51:07;;;;;;;9.90;8.97;;;13.90;99.90;;;;;;5031818;28;20522;-78
2023/10/10 00:53:36;;;;;;;8.83;8.03;;;13.90;99.90;;;;;;5032824;28;21032;-89
2023/10/10 00:56:06;;;;;;;10.30;9.50;;;13.90;99.90;;;;;;5032751;28;20915;-78
2023/10/10 00:58:37;;;;;;;8.50;7.77;;;13.90;99.90;;;;;;5032345;28;20474;-78
2023/10/10 01:01:08;;;;;;;9.48;8.55;;;14.00;99.90;;;;;;5032069;28;20472;-78
2023/10/10 01:03:44;;;;;;;9.87;7.50;;;14.00;99.90;;;;;;5035997;28;20231;-77
2023/10/10 01:06:24;;;;;;;8.73;7.83;;;13.90;99.90;;;;;;5035401;28;21012;-88
2023/10/10 01:09:20;;;;;;;8.18;7.38;;;13.90;99.90;;;;;;5036509;28;20467;-88
2023/10/10 01:11:48;;;;;;;7.50;6.90;;;13.90;99.90;;;;;;5036862;28;20237;-88
2023/10/10 01:14:18;;;;;;;7.70;7.00;;;13.90;99.90;;;;;;5036646;28;20476;-89
2023/10/10 01:16:47;;;;;;;8.37;7.57;;;14.00;99.90;;;;;;5036822;28;20468;-89
2023/10/10 01:19:18;;;;;;;7.10;6.50;;;13.90;99.90;;;;;;5036431;28;20476;-77
2023/10/10 01:21:50;;;;;;;7.70;7.03;;;14.00;99.90;;;;;;5034955;28;20468;-78
2023/10/10 01:24:18;;;;;;;9.57;8.70;;;14.00;99.90;;;;;;5036368;28;20460;-90
2023/10/10 01:26:45;;;;;;;7.90;7.10;;;14.00;99.90;;;;;;5035893;28;20476;-89
2023/10/10 01:29:21;;;;;;;8.20;7.40;;;14.00;99.90;;;;;;5036082;28;20788;-78
2023/10/10 01:31:51;;;;;;;6.40;5.90;;;14.00;99.90;;;;;;5034812;28;20468;-78
2023/10/10 01:34:31;;;;;;;8.10;7.40;;;14.00;99.90;;;;;;5035287;28;20488;-78
2023/10/10 01:37:07;;;;;;;7.50;6.90;;;14.00;99.90;;;;;;5034544;28;20861;-78
2023/10/10 01:39:47;;;;;;;6.10;5.60;;;14.00;99.90;;;;;;5035229;28;20551;-89
2023/10/10 01:42:17;;;;;;;5.07;4.67;;;14.00;99.90;;;;;;5052388;28;20460;-89
2023/10/10 01:44:44;;;;;;;6.07;5.53;;;14.00;99.90;;;;;;5052026;28;20478;-78
2023/10/10 01:47:26;;;;;;;7.33;5.20;;;14.00;99.90;;;;;;5057658;28;20545;-89
2023/10/10 01:49:53;;;;;;;5.50;5.00;;;14.00;99.90;;;;;;5074558;28;20470;-78
2023/10/10 01:52:23;;;;;;;5.80;5.30;;;14.00;99.90;;;;;;5075161;28;20956;-78
2023/10/10 01:54:53;;;;;;;4.83;4.43;;;14.00;99.90;;;;;;5075140;28;20474;-78
2023/10/10 01:57:22;;;;;;;4.67;4.27;;;14.00;99.90;;;;;;5074810;28;20454;-78
2023/10/10 01:59:51;;;;;;;5.63;5.13;;;14.00;99.90;;;;;;5075111;28;20518;-78
2023/10/10 02:02:23;;;;;;;5.20;4.80;;;14.00;99.90;;;;;;5075214;28;20454;-89
2023/10/10 02:04:56;;;;;;;5.73;5.10;;;14.00;99.90;;;;;;5076364;28;20557;-89
2023/10/10 02:07:31;;;;;;;5.57;4.90;;;14.00;99.90;;;;;;5075984;28;20521;-89
2023/10/10 02:10:11;;;;;;;5.83;5.37;;;14.00;99.90;;;;;;5076905;28;20952;-89
2023/10/10 02:12:39;;;;;;;5.72;5.22;;;14.00;99.90;;;;;;5077244;28;20527;-79
2023/10/10 02:15:11;;;;;;;5.20;4.70;;;14.10;99.90;;;;;;5074012;28;20224;-78
2023/10/10 02:17:42;;;;;;;5.07;4.57;;;14.10;99.90;;;;;;5076707;28;20539;-78
2023/10/10 02:20:33;;;;;;;5.30;4.80;;;14.10;99.90;;;;;;5076267;28;20458;-88
2023/10/10 02:23:24;;;;;;;5.73;5.20;;;14.10;99.90;;;;;;5073778;28;20467;-80
2023/10/10 02:25:53;;;;;;;4.53;4.13;;;14.10;99.90;;;;;;5077765;28;20550;-89
2023/10/10 02:28:42;;;;;;;6.22;5.65;;;14.10;99.90;;;;;;5077659;28;20547;-89
2023/10/10 02:31:10;;;;;;;5.23;4.77;;;14.10;99.90;;;;;;5073916;28;20299;-78
2023/10/10 02:33:37;;;;;;;5.20;4.75;;;14.10;99.90;;;;;;5074628;28;20477;-78
2023/10/10 02:36:12;;;;;;;5.20;4.70;;;14.00;99.90;;;;;;5073609;28;20224;-89
2023/10/10 02:38:53;;;;;;;5.20;4.80;;;14.10;99.90;;;;;;5077764;28;20488;-89
2023/10/10 02:41:27;;;;;;;5.13;4.70;;;14.10;99.90;;;;;;5066219;28;20470;-78
2023/10/10 02:44:04;;;;;;;4.93;4.50;;;14.10;99.90;;;;;;5074320;28;20466;-78
2023/10/10 02:46:56;;;;;;;6.78;6.07;;;14.10;99.90;;;;;;5072294;28;20458;-89
2023/10/10 02:49:29;;;;;;;6.47;5.77;;;14.20;99.90;;;;;;5077777;28;20228;-88
2023/10/10 02:51:57;;;;;;;6.53;5.70;;;14.10;99.90;;;;;;5071372;28;20462;-78
2023/10/10 02:54:33;;;;;;;6.20;5.70;;;14.20;99.90;;;;;;5057224;28;20478;-78
2023/10/10 02:57:26;;;;;;;6.60;5.93;;;14.20;99.90;;;;;;5068638;28;20459;-89
2023/10/10 02:59:59;;;;;;;8.00;5.90;;;14.20;99.90;;;;;;5056007;28;20465;-78
2023/10/10 03:02:30;;;;;;;6.40;5.80;;;14.20;99.90;;;;;;5074166;28;20477;-78
2023/10/10 03:05:14;;;;;;;6.07;5.47;;;14.20;99.90;;;;;;5074258;28;20991;-78
2023/10/10 03:07:51;;;;;;;6.13;5.70;;;14.20;99.90;;;;;;5091747;28;20485;-89
2023/10/10 03:10:38;;;;;;;5.77;5.33;;;14.20;99.90;;;;;;5082039;28;20470;-89
2023/10/10 03:13:36;;;;;;;7.03;6.30;;;14.30;99.90;;;;;;5107880;28;20939;-88
2023/10/10 03:19:11;;;;;;;6.00;5.30;;;14.30;99.90;;;;;;5100546;28;20479;-79
2023/10/10 03:21:44;;;;;;;7.80;6.80;;;14.30;99.90;;;;;;5093539;28;20476;-79
2023/10/10 03:24:29;;;;;;;6.20;5.60;;;14.30;99.90;;;;;;5097512;28;20441;-79
2023/10/10 03:27:01;;;;;;;7.40;6.70;;;14.30;99.90;;;;;;5093069;28;20460;-78
2023/10/10 03:29:46;;;;;;;6.57;5.97;;;14.30;99.90;;;;;;5109942;28;20458;-89
2023/10/10 03:32:31;;;;;;;7.30;6.30;;;14.30;99.90;;;;;;5111991;28;21253;-89
2023/10/10 03:35:05;;;;;;;6.90;6.23;;;14.30;99.90;;;;;;5099698;28;20473;-88
2023/10/10 03:37:40;;;;;;;8.13;7.17;;;14.40;99.90;;;;;;5110849;28;20465;-88
2023/10/10 03:40:21;;;;;;;6.83;6.13;;;14.40;99.90;;;;;;5110560;28;20457;-90
2023/10/10 05:25:23;;;;;;;7.40;6.70;;;15.00;99.90;;;;;;5103441;28;20472;-79
2023/10/10 05:27:52;;;;;;;8.50;7.70;;;15.00;99.90;;;;;;5095561;28;20919;-78
2023/10/10 05:30:24;;;;;;;10.47;8.00;;;15.10;99.90;;;;;;5095497;28;20473;-78
2023/10/10 05:33:00;;;;;;;8.67;7.83;;;15.10;99.90;;;;;;5094428;28;20454;-78
2023/10/10 05:35:28;;;;;;;10.90;9.97;;;15.10;99.90;;;;;;5086207;28;20469;-77
2023/10/10 05:37:56;;;;;;;8.10;7.30;;;15.10;99.90;;;;;;5095127;28;20485;-78
2023/10/10 05:40:24;;;;;;;9.83;8.80;;;15.10;99.90;;;;;;5095085;28;20490;-77
2023/10/10 05:42:52;;;;;;;8.03;7.27;;;15.10;99.90;;;;;;5094892;28;20465;-77
2023/10/10 05:45:20;;;;;;;9.47;8.57;;;15.20;99.90;;;;;;5094727;28;20469;-78
2023/10/10 05:47:47;;;;;;;8.50;7.70;;;15.20;99.90;;;;;;5093890;28;20475;-78
2023/10/10 05:50:14;;;;;;;8.70;7.37;;;15.20;99.90;;;;;;5095402;28;20461;-78
2023/10/10 05:52:43;;;;;;;9.70;8.57;;;15.20;99.90;;;;;;5094675;28;20532;-77
2023/10/10 05:55:12;;;;;;;9.50;8.60;;;15.30;99.90;;;;;;5094348;28;20453;-78
2023/10/10 05:57:39;;;;;;;8.00;7.30;;;15.30;99.90;;;;;;5094228;28;20527;-78
2023/10/10 06:00:10;;;;;;;9.13;7.90;;;15.30;99.90;;;;;;5094857;28;20460;-78
2023/10/10 06:02:37;;;;;;;9.13;8.23;;;15.30;99.90;;;;;;5094024;28;20468;-78
2023/10/10 06:05:05;;;;;;;10.20;9.17;;;15.30;99.90;;;;;;5094751;28;20470;-77
2023/10/10 06:07:33;;;;;;;10.50;9.37;;;15.40;99.90;;;;;;5094465;28;20473;-78
2023/10/10 06:10:05;;;;;;;11.97;10.77;;;15.40;99.90;;;;;;5094414;28;20501;-77
2023/10/10 06:12:36;;;;;;;14.60;11.67;;;15.50;99.90;;;;;;5094077;28;20548;-78
2023/10/10 06:15:06;;;;;;;13.27;11.90;;;15.50;99.90;;;;;;5094188;28;20465;-78
2023/10/10 06:17:33;;;;;;;12.40;11.20;;;15.50;99.90;;;;;;5093830;28;20526;-78
2023/10/10 06:20:01;;;;;;;12.73;11.43;;;15.50;99.90;;;;;;5094949;28;20902;-78
2023/10/10 06:22:29;;;;;;;12.23;11.07;;;15.60;99.90;;;;;;5094628;28;20469;-78
2023/10/10 06:24:58;;;;;;;11.60;10.50;;;15.60;99.90;;;;;;5097279;28;20529;-89
2023/10/10 06:27:28;;;;;;;10.93;10.03;;;15.60;99.90;;;;;;5097321;28;20855;-89
2023/10/10 06:29:59;;;;;;;10.70;9.70;;;15.70;99.90;;;;;;5097854;28;20804;-78
2023/10/10 06:32:30;;;;;;;9.17;8.13;;;15.70;99.90;;;;;;5095320;28;20462;-78
2023/10/10 06:35:25;;;;;;;11.23;10.03;;;15.70;99.90;;;;;;5094258;28;20477;-78
2023/10/10 06:37:52;;;;;;;12.80;11.50;;;15.70;99.90;;;;;;5095962;28;20518;-89
2023/10/10 06:40:28;;;;;;;11.87;10.77;;;15.80;99.90;;;;;;5097220;28;20466;-78
2023/10/10 06:42:56;;;;;;;9.87;8.97;;;15.80;99.90;;;;;;5095184;28;20491;-89
2023/10/10 06:45:26;;;;;;;9.23;8.43;;;15.80;99.90;;;;;;5095683;28;20535;-88
2023/10/10 06:47:54;;;;;;;7.57;6.87;;;15.90;99.90;;;;;;5096652;28;20475;-89
2023/10/10 06:50:22;;;;;;;6.40;5.90;;;15.90;99.90;;;;;;5096611;28;20461;-89
2023/10/10 06:52:52;;;;;;;6.37;5.87;;;15.90;99.90;;;;;;5096437;28;20492;-89
2023/10/10 06:55:23;;;;;;;5.70;5.20;;;16.00;99.90;;;;;;5095571;28;20492;-77
2023/10/10 06:57:59;;;;;;;5.37;4.87;;;16.00;99.90;;;;;;5093667;28;20469;-78
2023/10/10 07:00:40;;;;;;;5.73;4.47;;;16.00;99.90;;;;;;5093030;28;20465;-77
2023/10/10 07:03:07;;;;;;;5.60;4.83;;;16.10;99.90;;;;;;5093648;28;20465;-77
2023/10/10 07:05:34;;;;;;;5.70;5.20;;;16.10;99.90;;;;;;5093221;28;20855;-77
2023/10/10 07:08:19;;;;;;;4.90;4.50;;;16.10;99.90;;;;;;5093483;28;20970;-77
2023/10/10 07:10:47;;;;;;;5.40;4.90;;;16.10;99.90;;;;;;5086888;28;20527;-89
2023/10/10 07:13:14;;;;;;;4.40;4.00;;;16.20;99.90;;;;;;5098861;28;20469;-89
2023/10/10 07:15:43;;;;;;;4.50;4.10;;;16.20;99.90;;;;;;5096019;28;20556;-89
2023/10/10 07:18:22;;;;;;;5.33;4.10;;;16.20;99.90;;;;;;5096613;28;20473;-89
2023/10/10 07:21:07;;;;;;;4.50;4.10;;;16.20;99.90;;;;;;5095086;28;20456;-89
2023/10/10 07:24:02;;;;;;;5.47;4.30;;;16.20;99.90;;;;;;5098479;28;21055;-89
2023/10/10 07:26:30;;;;;;;4.70;4.30;;;16.30;99.90;;;;;;5098572;28;20529;-89
2023/10/10 07:29:25;;;;;;;4.63;4.23;;;16.20;99.90;;;;;;5099390;28;20457;-89
2023/10/10 07:31:47;;;;;;;4.63;4.27;;;16.20;99.90;;;;;;5100397;28;20842;-89
2023/10/10 07:34:16;;;;;;;5.90;5.20;;;16.30;99.90;;;;;;5084617;28;20954;-89
2023/10/10 07:36:50;;;;;;;5.90;5.30;;;16.30;99.90;;;;;;5094006;28;20544;-89
2023/10/10 07:39:36;;;;;;;6.30;5.57;;;16.30;99.90;;;;;;5094483;28;20955;-88
2023/10/10 07:42:08;;;;;;;6.50;5.90;;;16.30;99.90;;;;;;5095042;28;20507;-87
2023/10/10 07:44:36;;;;;;;8.23;7.33;;;16.30;99.90;;;;;;5095514;28;20469;-88
2023/10/10 07:47:26;;;;;;;7.47;6.87;;;16.40;99.90;;;;;;5095127;28;20529;-89
2023/10/10 07:49:53;;;;;;;7.87;7.17;;;16.40;99.90;;;;;;5095260;28;20966;-89
2023/10/10 07:52:23;;;;;;;6.13;5.57;;;16.40;99.90;;;;;;5097507;28;20453;-89
2023/10/10 07:55:02;;;;;;;7.10;6.00;;;16.40;99.90;;;;;;5098843;28;20469;-90
2023/10/10 07:57:55;;;;;;;5.90;5.40;;;16.50;99.90;;;;;;5095143;28;20461;-89
2023/10/10 08:00:35;;;;;;;5.83;5.20;;;16.50;99.90;;;;;;5095361;28;20516;-90
2023/10/10 08:03:07;;;;;;;7.70;6.50;;;16.50;99.90;;;;;;5096253;28;20465;-89
2023/10/10 08:05:34;;;;;;;6.30;5.70;;;16.50;99.90;;;;;;5095491;28;20462;-89
2023/10/10 08:08:04;;;;;;;6.40;5.80;;;16.50;99.90;;;;;;5093679;28;20552;-86
2023/10/10 08:10:38;;;;;;;6.17;5.57;;;16.60;99.90;;;;;;5097392;28;20844;-88
2023/10/10 08:13:13;;;;;;;6.90;6.23;;;16.60;99.90;;;;;;5097707;28;20468;-84
2023/10/10 08:15:56;;;;;;;7.70;6.90;;;16.60;99.90;;;;;;5105604;28;20457;-89
2023/10/10 08:18:52;;;;;;;6.03;5.10;;;16.70;99.90;;;;;;5071057;28;20484;-88
2023/10/10 08:21:22;;;;;;;6.83;6.07;;;16.70;99.90;;;;;;5080175;28;20472;-89
2023/10/10 08:23:56;;;;;;;5.83;5.33;;;16.80;99.90;;;;;;5078641;28;20467;-90
2023/10/10 08:26:26;;;;;;;6.90;6.30;;;16.80;99.90;;;;;;5078454;28;20469;-90
2023/10/10 08:28:54;;;;;;;7.53;5.70;;;16.90;99.90;;;;;;5078365;28;20524;-90
2023/10/10 08:31:22;;;;;;;5.73;5.23;;;16.90;99.90;;;;;;5077740;28;20466;-89
2023/10/10 08:33:51;;;;;;;7.03;5.10;;;17.00;99.90;;;;;;5078423;28;20523;-89
2023/10/10 08:36:26;;;;;;;6.47;5.90;;;17.00;99.90;;;;;;5077155;28;20474;-89
2023/10/10 08:38:54;;;;;;;4.70;4.30;;;17.00;99.90;;;;;;5078570;28;20461;-89
2023/10/10 08:41:26;;;;;;;5.37;4.90;;;17.00;99.90;;;;;;5077725;28;20526;-90
2023/10/10 08:43:57;;;;;;;5.17;4.67;;;17.10;99.90;;;;;;5078520;28;20466;-90
2023/10/10 08:46:34;;;;;;;7.13;6.50;;;17.10;99.90;;;;;;5061815;28;20466;-89
2023/10/10 08:49:04;;;;;;;9.63;6.10;;;17.10;99.90;;;;;;5076574;28;20541;-89
2023/10/10 08:51:33;;;;;;;6.50;5.90;;;17.10;99.90;;;;;;5078468;28;20850;-90
2023/10/10 08:54:02;;;;;;;5.97;5.23;;;17.20;99.90;;;;;;5076849;28;20474;-89
2023/10/10 08:56:37;;;;;;;6.13;5.53;;;17.20;99.90;;;;;;5078505;28;20462;-90
2023/10/10 08:59:04;;;;;;;5.47;5.03;;;17.10;99.90;;;;;;5078707;28;20480;-89
2023/10/10 09:01:35;;;;;;;4.37;3.97;;;17.10;99.90;;;;;;5068687;28;20527;-89
2023/10/10 09:04:05;;;;;;;4.50;4.10;;;17.20;99.90;;;;;;5078018;28;20481;-90
2023/10/10 09:07:01;;;;;;;5.27;4.80;;;17.20;99.90;;;;;;5077730;28;20449;-89
2023/10/10 09:09:35;;;;;;;5.47;4.97;;;17.20;99.90;;;;;;5076576;28;20557;-89
2023/10/10 09:12:03;;;;;;;4.80;4.40;;;17.20;99.90;;;;;;5078000;28;20469;-90
2023/10/10 09:14:41;;;;;;;5.90;5.10;;;17.20;99.90;;;;;;5076913;28;20478;-89
2023/10/10 09:17:12;;;;;;;4.70;4.30;;;17.30;99.90;;;;;;5087684;28;20942;-87
2023/10/10 09:19:48;;;;;;;3.97;3.57;;;17.30;99.90;;;;;;5097662;28;20793;-90
2023/10/10 09:22:28;;;;;;;4.40;4.10;;;17.30;99.90;;;;;;5095491;28;20461;-89
2023/10/10 09:24:56;;;;;;;4.23;3.93;;;17.30;99.90;;;;;;5097103;28;20473;-90
2023/10/10 09:27:27;;;;;;;3.93;3.53;;;17.40;99.90;;;;;;5097695;28;20469;-89
2023/10/10 09:29:57;;;;;;;4.27;3.87;;;17.40;99.90;;;;;;5097207;28;20473;-91
2023/10/10 09:32:36;;;;;;;3.90;3.53;;;17.40;99.90;;;;;;5097717;28;20466;-90
2023/10/10 09:35:08;;;;;;;4.40;3.97;;;17.40;99.90;;;;;;5098820;28;20516;-90
2023/10/10 09:37:41;;;;;;;5.20;4.70;;;17.40;99.90;;;;;;5090137;28;20930;-90
2023/10/10 09:40:16;;;;;;;4.80;4.40;;;17.40;99.90;;;;;;5100693;28;20548;-90
2023/10/10 09:43:03;;;;;;;6.13;5.60;;;17.40;99.90;;;;;;5101773;28;20502;-89
2023/10/10 09:51:30;;;;;;;4.83;4.43;;;17.50;99.90;;;;;;5107071;28;20491;-90
2023/10/10 09:54:15;;;;;;;4.20;3.90;;;17.50;99.90;;;;;;5096889;28;20465;-79
2023/10/10 09:56:46;;;;;;;6.00;5.20;;;17.50;99.90;;;;;;5096396;28;20492;-79
2023/10/10 09:59:16;;;;;;;5.17;4.63;;;17.50;99.90;;;;;;5094040;28;20485;-78
2023/10/10 10:01:59;;;;;;;4.50;3.87;;;17.50;99.90;;;;;;5095409;28;20475;-90
2023/10/10 10:04:38;;;;;;;5.07;4.77;;;17.60;99.90;;;;;;5095765;28;20485;-79
2023/10/10 10:07:18;;;;;;;7.53;4.20;;;17.60;99.90;;;;;;5095959;28;20472;-90
2023/10/10 10:10:16;;;;;;;4.83;4.03;;;17.70;99.90;;;;;;5093998;28;20481;-78
2023/10/10 10:13:01;;;;;;;5.03;4.00;;;17.70;99.90;;;;;;5083405;28;20488;-78
2023/10/10 10:15:48;;;;;;;3.80;3.43;;;17.70;99.90;;;;;;5095871;28;20496;-79
2023/10/10 10:18:26;;;;;;;3.37;3.03;;;17.80;99.90;;;;;;5092565;28;20449;-80
2023/10/10 10:21:12;;;;;;;7.63;4.53;;;17.80;99.90;;;;;;5094541;28;20477;-89
2023/10/10 10:23:46;;;;;;;3.97;3.67;;;17.80;99.90;;;;;;5094481;28;20461;-76
2023/10/10 10:26:29;;;;;;;7.50;5.10;;;17.80;99.90;;;;;;5098811;28;20469;-77
2023/10/10 10:28:57;;;;;;;5.20;4.00;;;17.80;99.90;;;;;;5097202;28;20457;-86
2023/10/10 10:31:29;;;;;;;4.63;4.23;;;17.80;99.90;;;;;;5093525;28;20540;-76
2023/10/10 10:34:23;;;;;;;4.50;3.43;;;17.90;99.90;;;;;;5085646;28;20461;-77
2023/10/10 10:36:58;;;;;;;4.30;3.70;;;17.90;99.90;;;;;;5093873;28;20473;-77
2023/10/10 10:39:34;;;;;;;4.17;3.60;;;17.90;99.90;;;;;;5095336;28;20487;-89
2023/10/10 10:42:01;;;;;;;195.73;32.53;;;17.90;99.90;;;;;;5094548;28;20481;-89
2023/10/10 10:44:33;;;;;;;244.27;51.67;;;18.00;99.90;;;;;;5095524;28;20457;-78
2023/10/10 10:47:14;;;;;;;413.43;86.73;;;18.00;99.90;;;;;;5094400;28;20518;-89
2023/10/10 10:49:41;;;;;;;66.60;20.00;;;18.00;99.90;;;;;;5095669;28;20970;-89
2023/10/10 10:55:18;;;;;;;30.30;11.07;;;18.00;99.90;;;;;;5092532;28;20542;-88
2023/10/10 10:57:48;;;;;;;16.23;6.37;;;18.00;99.90;;;;;;5095694;28;20461;-87
2023/10/10 11:03:01;;;;;;;5.07;4.23;;;18.00;99.90;;;;;;5093906;28;20449;-78
2023/10/10 11:05:29;;;;;;;4.53;3.93;;;18.00;99.90;;;;;;5092161;28;20473;-78
2023/10/10 11:08:10;;;;;;;5.40;4.60;;;18.00;99.90;;;;;;5092942;28;20458;-78
2023/10/10 11:10:45;;;;;;;6.20;3.73;;;18.00;99.90;;;;;;5094183;28;20476;-77
2023/10/10 11:13:14;;;;;;;4.00;3.60;;;18.10;99.90;;;;;;5092953;28;20504;-77
2023/10/10 11:15:42;;;;;;;26.83;8.77;;;18.10;99.90;;;;;;5093261;28;20470;-89
2023/10/10 11:18:10;;;;;;;20.90;7.23;;;18.10;99.90;;;;;;5092844;28;20920;-91
2023/10/10 11:23:41;;;;;;;5.50;4.50;;;18.10;99.90;;;;;;5093254;28;20461;-78
2023/10/10 11:26:17;;;;;;;5.07;4.47;;;18.10;99.90;;;;;;5095158;28;20465;-78
2023/10/10 11:31:48;;;;;;;6.33;3.60;;;18.20;99.90;;;;;;5078586;28;20797;-79
2023/10/10 11:34:26;;;;;;;4.30;3.90;;;18.20;99.90;;;;;;5093215;28;20492;-92
2023/10/10 11:37:13;;;;;;;4.03;3.40;;;18.20;99.90;;;;;;5095503;28;20606;-79
2023/10/10 11:39:57;;;;;;;3.50;3.20;;;18.20;99.90;;;;;;5093358;28;20469;-79
2023/10/10 11:42:30;;;;;;;4.37;4.07;;;18.20;99.90;;;;;;5093965;28;20462;-91
2023/10/10 11:45:05;;;;;;;5.47;4.10;;;18.20;99.90;;;;;;5092053;28;20466;-79
2023/10/10 11:47:42;;;;;;;5.23;4.60;;;18.20;99.90;;;;;;5093976;28;20472;-91
2023/10/10 11:50:12;;;;;;;4.50;3.90;;;18.20;99.90;;;;;;5092671;28;20522;-91
2023/10/10 11:52:51;;;;;;;5.00;4.50;;;18.20;99.90;;;;;;5093626;28;20458;-92
2023/10/10 11:55:20;;;;;;;6.07;4.53;;;18.20;99.90;;;;;;5070896;28;20465;-91
2023/10/10 11:57:49;;;;;;;6.50;3.63;;;18.20;99.90;;;;;;5090339;28;20476;-80
2023/10/10 12:00:22;;;;;;;4.43;4.03;;;18.20;99.90;;;;;;5084584;28;20668;-91
2023/10/10 12:02:53;;;;;;;31.23;9.30;;;18.30;99.90;;;;;;5093059;28;20525;-80
2023/10/10 12:08:15;;;;;;;22.50;6.30;;;18.30;99.90;;;;;;5031990;28;20456;-92
2023/10/10 12:11:03;;;;;;;18.03;6.23;;;18.30;99.90;;;;;;5076689;28;20480;-90
2023/10/10 12:13:38;;;;;;;8.70;5.90;;;18.40;99.90;;;;;;5066627;28;20476;-79
2023/10/10 12:16:30;;;;;;;12.07;7.03;;;18.40;99.90;;;;;;5076101;28;20548;-79
2023/10/10 12:19:01;;;;;;;8.90;6.13;;;18.40;99.90;;;;;;5062099;28;20470;-78
2023/10/10 12:21:40;;;;;;;6.50;5.50;;;18.50;99.90;;;;;;5070104;28;21193;-79
2023/10/10 12:24:17;;;;;;;5.23;4.73;;;18.50;99.90;;;;;;5055083;28;20557;-78
2023/10/10 12:26:54;;;;;;;5.03;4.53;;;18.50;99.90;;;;;;5058576;28;20903;-78
2023/10/10 12:29:40;;;;;;;4.90;4.40;;;18.50;99.90;;;;;;5071523;28;20555;-78
2023/10/10 12:32:18;;;;;;;4.17;3.73;;;18.50;99.90;;;;;;5064928;28;20481;-80
2023/10/10 12:34:59;;;;;;;6.33;5.13;;;18.60;99.90;;;;;;5060569;28;20903;-79
2023/10/10 12:37:28;;;;;;;5.83;5.23;;;18.60;99.90;;;;;;5070578;28;20535;-78
2023/10/10 12:40:08;;;;;;;4.40;4.10;;;18.60;99.90;;;;;;5039676;28;20502;-78
2023/10/10 12:42:51;;;;;;;5.10;3.93;;;18.60;99.90;;;;;;5084419;28;20476;-79
2023/10/10 12:45:33;;;;;;;3.50;3.20;;;18.60;99.90;;;;;;5059390;28;20465;-79
2023/10/10 12:48:02;;;;;;;5.70;4.03;;;18.60;99.90;;;;;;5071578;28;20955;-79
2023/10/10 12:50:37;;;;;;;3.33;2.87;;;18.60;99.90;;;;;;5061233;28;20481;-78
2023/10/10 12:53:09;;;;;;;5.20;4.70;;;18.60;99.90;;;;;;5074401;28;20968;-78
2023/10/10 12:55:48;;;;;;;6.47;5.17;;;18.60;99.90;;;;;;5051449;28;20456;-79
2023/10/10 12:58:20;;;;;;;5.33;4.83;;;18.60;99.90;;;;;;5057232;28;20564;-79
2023/10/10 13:00:52;;;;;;;4.60;4.20;;;18.60;99.90;;;;;;5076859;28;20504;-93
2023/10/10 13:03:20;;;;;;;4.53;3.80;;;18.60;99.90;;;;;;5098955;28;20468;-92
2023/10/10 13:05:52;;;;;;;3.40;3.20;;;18.60;99.90;;;;;;5098527;28;20477;-93
2023/10/10 13:12:39;;;;;;;3.27;2.93;;;18.70;99.90;;;;;;4985650;28;20997;-92
2023/10/10 13:15:27;;;;;;;3.27;3.07;;;18.60;99.90;;;;;;4999297;28;20470;-94
2023/10/10 13:21:20;;;;;;;3.10;2.80;;;18.60;99.90;;;;;;5039815;28;20472;-93
2023/10/10 13:24:00;;;;;;;3.20;2.87;;;18.60;99.90;;;;;;5108625;28;20539;-93
2023/10/10 13:26:47;;;;;;;;;;;;;;;;;;;;;
2023/10/10 13:33:20;;;;;;;6.50;5.90;;;18.60;99.90;;;;;;5018437;28;20445;-94
2023/10/10 13:35:50;;;;;;;6.77;6.17;;;18.60;99.90;;;;;;5098011;28;20473;-94
2023/10/10 13:38:18;;;;;;;4.73;4.23;;;18.70;99.90;;;;;;5096329;28;20472;-80
2023/10/10 13:41:02;;;;;;;5.10;4.60;;;18.70;99.90;;;;;;5097813;28;20520;-94
2023/10/10 13:43:29;;;;;;;5.40;4.90;;;18.70;99.90;;;;;;5099903;28;20503;-93
2023/10/10 13:45:57;;;;;;;4.37;3.97;;;18.70;99.90;;;;;;5097370;28;20970;-78
2023/10/10 13:48:25;;;;;;;5.33;4.93;;;18.70;99.90;;;;;;5095275;28;20527;-79
2023/10/10 13:50:58;;;;;;;5.43;4.23;;;18.70;99.90;;;;;;5095515;28;20460;-79
2023/10/10 13:53:29;;;;;;;5.90;4.77;;;18.70;99.90;;;;;;5088412;28;20495;-94
2023/10/10 13:56:00;;;;;;;5.70;4.27;;;18.70;99.90;;;;;;5110914;28;20479;-92
2023/10/10 13:58:27;;;;;;;4.20;3.90;;;18.70;99.90;;;;;;5111449;28;20460;-91
2023/10/10 14:00:55;;;;;;;4.43;4.03;;;18.70;99.90;;;;;;5112813;28;20456;-80
2023/10/10 14:03:29;;;;;;;5.47;4.97;;;18.60;99.90;;;;;;5116288;28;21176;-93
2023/10/10 14:06:03;;;;;;;5.03;4.53;;;18.60;99.90;;;;;;5113032;28;20475;-79
2023/10/10 14:08:33;;;;;;;6.33;5.73;;;18.60;99.90;;;;;;5089445;28;20482;-94
2023/10/10 14:11:01;;;;;;;6.10;5.60;;;18.60;99.90;;;;;;5085757;28;20488;-93
2023/10/10 14:13:29;;;;;;;5.90;5.17;;;18.60;99.90;;;;;;5096269;28;20578;-94
2023/10/10 14:15:57;;;;;;;5.83;5.33;;;18.60;99.90;;;;;;5093953;28;20473;-79
2023/10/10 14:18:28;;;;;;;5.90;5.40;;;18.50;99.90;;;;;;5074465;28;20956;-92
2023/10/10 14:21:01;;;;;;;4.23;3.83;;;18.60;99.90;;;;;;5076325;28;20463;-88
2023/10/10 14:23:29;;;;;;;5.17;4.37;;;18.50;99.90;;;;;;5074973;28;20463;-94
2023/10/10 14:26:12;;;;;;;5.70;5.20;;;18.50;99.90;;;;;;5076696;28;20466;-93
2023/10/10 14:28:41;;;;;;;5.20;4.80;;;18.50;99.90;;;;;;5065426;28;20914;-79
2023/10/10 14:31:18;;;;;;;9.30;7.07;;;18.50;99.90;;;;;;5044104;28;20482;-93
2023/10/10 14:33:47;;;;;;;6.50;4.87;;;18.50;99.90;;;;;;5054732;28;20469;-93
2023/10/10 14:36:15;;;;;;;5.00;4.53;;;18.50;99.90;;;;;;5058427;28;21023;-79
2023/10/10 14:38:48;;;;;;;6.50;4.50;;;18.50;99.90;;;;;;5072786;28;20466;-80
2023/10/10 14:41:17;;;;;;;7.30;4.53;;;18.50;99.90;;;;;;5074565;28;20480;-91
2023/10/10 14:43:47;;;;;;;3.47;3.17;;;18.50;99.90;;;;;;5065498;28;20469;-92
2023/10/10 14:46:21;;;;;;;4.93;4.53;;;18.50;99.90;;;;;;5074970;28;20471;-91
2023/10/10 14:48:49;;;;;;;3.33;3.03;;;18.50;99.90;;;;;;5075319;28;20952;-90
2023/10/10 14:51:18;;;;;;;3.20;2.90;;;18.50;99.90;;;;;;5075738;28;21201;-92
2023/10/10 14:53:54;;;;;;;6.53;4.30;;;18.50;99.90;;;;;;5075448;28;20545;-90
2023/10/10 14:56:34;;;;;;;5.40;4.07;;;18.40;99.90;;;;;;5074772;28;20536;-92
2023/10/10 14:59:12;;;;;;;4.13;3.27;;;18.40;99.90;;;;;;5074934;28;20498;-79
2023/10/10 15:01:53;;;;;;;7.43;4.37;;;18.30;99.90;;;;;;5073869;28;20809;-79
2023/10/10 15:04:28;;;;;;;3.50;3.20;;;18.30;99.90;;;;;;5071170;28;20508;-80
2023/10/10 15:06:59;;;;;;;5.30;3.20;;;18.30;99.90;;;;;;5074751;28;20966;-79
2023/10/10 15:09:29;;;;;;;2.80;2.60;;;18.40;99.90;;;;;;5071552;28;20466;-79
2023/10/10 15:12:01;;;;;;;2.90;2.40;;;18.40;99.90;;;;;;5070636;28;20539;-79
2023/10/10 15:14:31;;;;;;;3.47;3.17;;;18.40;99.90;;;;;;5062490;28;20471;-79
2023/10/10 15:17:04;;;;;;;3.50;3.20;;;18.40;99.90;;;;;;5070801;28;20490;-79
2023/10/10 15:19:32;;;;;;;5.93;5.33;;;18.40;99.90;;;;;;5060711;28;20463;-79
2023/10/10 15:21:59;;;;;;;4.93;4.43;;;18.40;99.90;;;;;;5054856;28;20480;-78
2023/10/10 15:24:28;;;;;;;4.00;3.60;;;18.40;99.90;;;;;;5072626;28;20470;-78
2023/10/10 15:26:56;;;;;;;3.60;3.30;;;18.40;99.90;;;;;;5066792;28;20473;-79
2023/10/10 15:29:26;;;;;;;15.50;10.23;;;18.40;99.90;;;;;;5072191;28;20477;-78
2023/10/10 15:32:00;;;;;;;5.93;4.50;;;18.40;99.90;;;;;;5071167;28;20928;-78
2023/10/10 15:34:38;;;;;;;4.63;3.40;;;18.30;99.90;;;;;;5067191;28;20816;-79
2023/10/10 15:37:14;;;;;;;4.07;3.33;;;18.30;99.90;;;;;;5071021;28;21163;-78